Time;durP1;ratioP1;P1;durP2;ratioP2;P2;SDS_P1;SDS_P2;PMS_P1;PMS_P2;Temp;Humidity;BMP_temperature;BMP_pressure;BME280_temperature;BME280_humidity;BME280_pressure;Samples;Min_cycle;Max_cycle;Signal;HPM_P1;HPM_P2
2024/01/19 00:01:10;;;;;;;29.47;15.07;;;;;;;;;;10496712;28;20191;-70
2024/01/19 00:06:11;;;;;;;25.50;14.27;;;;;;;;;;10496648;28;20242;-70
2024/01/19 00:11:14;;;;;;;30.10;14.43;;;;;;;;;;10495689;28;20203;-67
2024/01/19 00:16:15;;;;;;;26.93;13.97;;;;;;;;;;10491689;28;20223;-68
2024/01/19 00:21:15;;;;;;;23.47;12.57;;;;;;;;;;10495812;28;20649;-69
2024/01/19 00:26:15;;;;;;;24.50;12.60;;;;;;;;;;10495578;28;20231;-69
2024/01/19 00:31:16;;;;;;;26.83;13.43;;;;;;;;;;10495809;28;20198;-69
2024/01/19 00:36:16;;;;;;;20.60;11.65;;;;;;;;;;10495058;28;20302;-68
2024/01/19 00:41:16;;;;;;;19.30;10.70;;;;;;;;;;10495072;28;20566;-68
2024/01/19 00:46:16;;;;;;;23.47;12.33;;;;;;;;;;10494522;28;20273;-69
2024/01/19 00:51:16;;;;;;;25.67;12.53;;;;;;;;;;10494815;28;20187;-69
2024/01/19 00:56:17;;;;;;;22.97;11.97;;;;;;;;;;10494292;28;20229;-69
2024/01/19 01:01:17;;;;;;;18.03;10.17;;;;;;;;;;10494553;28;20186;-69
2024/01/19 01:06:17;;;;;;;20.77;9.47;;;;;;;;;;10494023;28;20584;-68
2024/01/19 01:11:18;;;;;;;17.77;10.17;;;;;;;;;;10493947;28;20192;-68
2024/01/19 01:16:18;;;;;;;19.10;9.40;;;;;;;;;;10493464;28;20218;-68
2024/01/19 01:21:18;;;;;;;18.77;10.40;;;;;;;;;;10493037;28;20192;-67
2024/01/19 01:26:18;;;;;;;19.40;10.10;;;;;;;;;;10493392;28;20467;-69
2024/01/19 01:31:18;;;;;;;18.40;11.03;;;;;;;;;;10493065;28;20198;-69
2024/01/19 01:36:19;;;;;;;18.20;10.67;;;;;;;;;;10492869;28;20564;-69
2024/01/19 01:41:19;;;;;;;16.23;9.30;;;;;;;;;;10492577;28;20558;-68
2024/01/19 01:46:19;;;;;;;18.87;10.00;;;;;;;;;;10492593;28;20226;-68
2024/01/19 01:51:19;;;;;;;19.93;11.10;;;;;;;;;;10492234;28;20234;-68
2024/01/19 01:56:20;;;;;;;20.33;11.50;;;;;;;;;;10492099;28;20236;-68
2024/01/19 02:01:20;;;;;;;20.90;9.70;;;;;;;;;;10491726;28;20186;-68
2024/01/19 02:06:20;;;;;;;18.83;9.17;;;;;;;;;;10491538;28;20241;-67
2024/01/19 02:11:20;;;;;;;15.87;8.67;;;;;;;;;;10491948;28;20218;-68
2024/01/19 02:16:20;;;;;;;16.00;8.07;;;;;;;;;;10491325;28;20226;-67
2024/01/19 02:21:21;;;;;;;14.67;8.50;;;;;;;;;;10491457;28;20554;-68
2024/01/19 02:26:22;;;;;;;18.83;9.70;;;;;;;;;;10491138;28;20230;-68
2024/01/19 02:31:22;;;;;;;19.73;10.50;;;;;;;;;;10491327;28;20603;-67
2024/01/19 02:36:22;;;;;;;24.93;10.83;;;;;;;;;;10490861;28;20685;-68
2024/01/19 02:41:22;;;;;;;21.23;9.80;;;;;;;;;;10490995;28;20456;-68
2024/01/19 02:46:23;;;;;;;19.27;10.83;;;;;;;;;;10490396;28;20387;-68
2024/01/19 02:51:23;;;;;;;24.40;10.47;;;;;;;;;;10490816;28;20452;-69
2024/01/19 02:56:23;;;;;;;20.90;10.63;;;;;;;;;;10490705;28;20537;-67
2024/01/19 03:01:23;;;;;;;20.53;11.17;;;;;;;;;;10490602;28;20502;-68
2024/01/19 03:06:24;;;;;;;22.03;11.17;;;;;;;;;;10490556;28;20233;-69
2024/01/19 03:11:24;;;;;;;24.70;11.80;;;;;;;;;;10490400;28;20778;-68
2024/01/19 03:16:24;;;;;;;28.10;13.20;;;;;;;;;;10490312;28;20776;-67
2024/01/19 03:21:24;;;;;;;29.60;13.33;;;;;;;;;;10490332;28;20611;-68
2024/01/19 03:26:24;;;;;;;24.67;11.67;;;;;;;;;;10489932;28;20241;-67
2024/01/19 03:31:25;;;;;;;23.93;12.40;;;;;;;;;;10489977;28;20187;-68
2024/01/19 03:36:25;;;;;;;24.77;11.87;;;;;;;;;;10489202;28;20211;-68
2024/01/19 03:41:25;;;;;;;21.63;11.03;;;;;;;;;;10489534;28;20216;-68
2024/01/19 03:46:25;;;;;;;17.13;9.03;;;;;;;;;;10493304;28;20289;-68
2024/01/19 03:51:26;;;;;;;13.23;7.67;;;;;;;;;;10496770;28;20566;-67
2024/01/19 03:56:26;;;;;;;23.00;10.33;;;;;;;;;;10496193;28;20241;-68
2024/01/19 04:01:26;;;;;;;19.63;9.23;;;;;;;;;;10496477;28;20192;-68
2024/01/19 04:06:26;;;;;;;17.20;6.60;;;;;;;;;;10496257;28;20217;-67
2024/01/19 04:11:26;;;;;;;14.07;8.07;;;;;;;;;;10496031;28;20666;-68
2024/01/19 04:16:26;;;;;;;16.03;8.77;;;;;;;;;;10496027;28;20215;-67
2024/01/19 04:21:27;;;;;;;17.77;9.87;;;;;;;;;;10495806;28;20332;-68
2024/01/19 04:26:28;;;;;;;17.03;9.17;;;;;;;;;;10495826;28;20218;-68
2024/01/19 04:31:28;;;;;;;20.70;8.73;;;;;;;;;;10495352;28;20199;-68
2024/01/19 04:36:28;;;;;;;19.93;10.23;;;;;;;;;;10495012;28;20223;-68
2024/01/19 04:41:28;;;;;;;18.60;9.87;;;;;;;;;;10494878;28;20198;-67
2024/01/19 04:46:28;;;;;;;24.70;11.13;;;;;;;;;;10494382;28;20254;-68
2024/01/19 04:51:28;;;;;;;25.37;12.63;;;;;;;;;;10494789;28;20259;-68
2024/01/19 04:56:29;;;;;;;29.17;12.07;;;;;;;;;;10494003;28;20221;-68
2024/01/19 05:01:29;;;;;;;18.07;8.37;;;;;;;;;;10494070;28;20437;-68
2024/01/19 05:06:29;;;;;;;29.83;15.40;;;;;;;;;;10493643;28;20214;-68
2024/01/19 05:11:29;;;;;;;25.80;13.63;;;;;;;;;;10493942;28;20207;-67
2024/01/19 05:16:30;;;;;;;30.87;15.13;;;;;;;;;;10493340;28;20226;-68
2024/01/19 05:21:30;;;;;;;29.90;15.03;;;;;;;;;;10493552;28;20278;-68
2024/01/19 05:26:30;;;;;;;17.80;8.87;;;;;;;;;;10493106;28;20209;-69
2024/01/19 05:31:31;;;;;;;27.73;13.07;;;;;;;;;;10493075;28;20425;-68
2024/01/19 05:36:31;;;;;;;30.67;12.03;;;;;;;;;;10492925;28;20266;-69
2024/01/19 05:41:31;;;;;;;25.60;13.87;;;;;;;;;;10492556;28;20198;-68
2024/01/19 05:46:31;;;;;;;14.33;8.17;;;;;;;;;;10491896;28;20223;-69
2024/01/19 05:51:32;;;;;;;17.33;9.97;;;;;;;;;;10492199;28;20874;-69
2024/01/19 05:56:32;;;;;;;18.93;10.03;;;;;;;;;;10491701;28;20312;-68
2024/01/19 06:01:32;;;;;;;21.63;11.47;;;;;;;;;;10492112;28;20291;-69
2024/01/19 06:06:32;;;;;;;19.47;10.40;;;;;;;;;;10491389;28;20561;-68
2024/01/19 06:11:32;;;;;;;18.43;10.77;;;;;;;;;;10491526;28;20199;-69
2024/01/19 06:16:32;;;;;;;23.87;12.93;;;;;;;;;;10491349;28;20229;-68
2024/01/19 06:21:33;;;;;;;19.13;11.47;;;;;;;;;;10491381;28;20245;-69
2024/01/19 06:26:33;;;;;;;14.00;8.17;;;;;;;;;;10491172;28;20222;-69
2024/01/19 06:31:34;;;;;;;13.77;7.03;;;;;;;;;;10491987;28;20191;-69
2024/01/19 06:36:34;;;;;;;20.03;11.47;;;;;;;;;;10490760;28;20221;-69
2024/01/19 06:41:35;;;;;;;19.27;11.97;;;;;;;;;;10491018;28;20661;-69
2024/01/19 06:46:35;;;;;;;25.30;12.57;;;;;;;;;;10489836;28;20259;-68
2024/01/19 06:51:35;;;;;;;20.80;12.63;;;;;;;;;;10490918;28;20209;-68
2024/01/19 06:56:35;;;;;;;26.43;15.80;;;;;;;;;;10490683;28;20267;-70
2024/01/19 07:01:38;;;;;;;18.13;10.33;;;;;;;;;;10490446;28;20191;-69
2024/01/19 07:06:39;;;;;;;29.03;13.90;;;;;;;;;;10490767;28;20692;-69
2024/01/19 07:11:39;;;;;;;31.27;15.17;;;;;;;;;;10490273;28;20194;-68
2024/01/19 07:16:40;;;;;;;18.83;9.10;;;;;;;;;;10490226;28;20223;-69
2024/01/19 07:21:40;;;;;;;23.60;11.40;;;;;;;;;;10495759;28;20196;-68
2024/01/19 07:26:40;;;;;;;17.43;10.60;;;;;;;;;;10497942;28;20223;-68
2024/01/19 07:31:41;;;;;;;26.07;10.60;;;;;;;;;;10498324;28;20209;-68
2024/01/19 07:36:41;;;;;;;21.27;12.80;;;;;;;;;;10496023;28;20222;-70
2024/01/19 07:41:41;;;;;;;21.83;11.90;;;;;;;;;;10497812;28;20653;-70
2024/01/19 07:46:41;;;;;;;25.97;16.63;;;;;;;;;;10496866;28;20376;-69
2024/01/19 07:51:41;;;;;;;19.17;10.03;;;;;;;;;;10497126;28;20206;-70
2024/01/19 07:56:42;;;;;;;22.93;12.10;;;;;;;;;;10496841;28;20578;-67
2024/01/19 08:01:43;;;;;;;37.83;16.37;;;;;;;;;;10496440;28;20445;-72
2024/01/19 08:06:43;;;;;;;14.80;7.90;;;;;;;;;;10496140;28;20785;-72
2024/01/19 08:11:43;;;;;;;32.53;18.33;;;;;;;;;;10496084;28;20198;-69
2024/01/19 08:16:43;;;;;;;20.70;11.90;;;;;;;;;;10496313;28;20484;-73
2024/01/19 08:21:43;;;;;;;27.60;14.27;;;;;;;;;;10495939;28;20203;-68
2024/01/19 08:26:44;;;;;;;16.47;9.17;;;;;;;;;;10495719;28;20218;-71
2024/01/19 08:31:44;;;;;;;13.83;9.80;;;;;;;;;;10495325;28;20474;-70
2024/01/19 08:36:44;;;;;;;8.33;5.83;;;;;;;;;;10495409;28;20223;-70
2024/01/19 08:41:45;;;;;;;11.93;5.53;;;;;;;;;;10495260;28;20218;-72
2024/01/19 08:46:45;;;;;;;13.40;6.20;;;;;;;;;;10494476;28;20230;-69
2024/01/19 08:51:47;;;;;;;12.90;6.77;;;;;;;;;;10494996;28;20187;-69
2024/01/19 08:56:47;;;;;;;11.97;6.87;;;;;;;;;;10494400;28;20238;-68
2024/01/19 09:01:47;;;;;;;13.60;6.30;;;;;;;;;;10494613;28;20626;-68
2024/01/19 09:06:48;;;;;;;9.53;5.60;;;;;;;;;;10494045;28;20207;-68
2024/01/19 09:11:48;;;;;;;11.77;6.77;;;;;;;;;;10494253;28;20440;-70
2024/01/19 09:16:48;;;;;;;11.30;4.80;;;;;;;;;;10493856;28;20292;-71
2024/01/19 09:21:50;;;;;;;8.13;4.70;;;;;;;;;;10493487;28;20202;-74
2024/01/19 09:26:51;;;;;;;6.73;4.43;;;;;;;;;;10493364;28;20218;-72
2024/01/19 09:31:51;;;;;;;9.53;5.50;;;;;;;;;;10490370;28;20195;-72
2024/01/19 09:36:52;;;;;;;14.93;5.67;;;;;;;;;;10493037;28;20343;-72
2024/01/19 09:42:00;;;;;;;11.85;4.97;;;;;;;;;;10491841;28;20564;-73
2024/01/19 09:47:00;;;;;;;9.80;4.20;;;;;;;;;;10491893;28;20251;-72
2024/01/19 09:52:02;;;;;;;11.23;4.13;;;;;;;;;;10492496;28;20208;-72
2024/01/19 09:57:02;;;;;;;7.30;3.47;;;;;;;;;;10492092;28;20306;-72
2024/01/19 10:02:04;;;;;;;15.57;6.07;;;;;;;;;;10492319;28;20277;-71
2024/01/19 10:07:04;;;;;;;7.23;4.13;;;;;;;;;;10491691;28;20217;-72
2024/01/19 10:12:06;;;;;;;8.83;4.60;;;;;;;;;;10491800;28;20305;-72
2024/01/19 10:17:07;;;;;;;10.17;4.27;;;;;;;;;;10491487;28;20219;-75
2024/01/19 10:22:29;;;;;;;7.67;3.73;;;;;;;;;;10491282;28;20183;-73
2024/01/19 10:27:39;;;;;;;5.80;3.10;;;;;;;;;;10489698;28;20215;-75
2024/01/19 10:32:40;;;;;;;5.33;3.10;;;;;;;;;;10491023;28;20192;-74
2024/01/19 10:37:40;;;;;;;8.10;2.87;;;;;;;;;;10491253;28;20226;-75
2024/01/19 10:42:41;;;;;;;8.73;3.20;;;;;;;;;;10490943;28;20221;-73
2024/01/19 10:47:43;;;;;;;5.37;3.00;;;;;;;;;;10489583;28;20265;-73
2024/01/19 10:52:44;;;;;;;8.67;3.57;;;;;;;;;;10491795;28;20195;-73
2024/01/19 10:57:45;;;;;;;19.63;7.03;;;;;;;;;;10499201;28;20707;-72
2024/01/19 11:02:47;;;;;;;9.47;3.97;;;;;;;;;;10499418;28;20197;-71
2024/01/19 11:07:49;;;;;;;17.03;5.40;;;;;;;;;;10498753;28;20230;-71
2024/01/19 11:12:51;;;;;;;9.23;5.20;;;;;;;;;;10499077;28;20187;-70
2024/01/19 11:17:53;;;;;;;11.30;5.87;;;;;;;;;;10498466;28;20601;-71
2024/01/19 11:22:53;;;;;;;12.83;6.33;;;;;;;;;;10498336;28;20604;-69
2024/01/19 11:27:59;;;;;;;11.17;4.70;;;;;;;;;;10498198;28;20306;-68
2024/01/19 11:33:14;;;;;;;10.57;4.83;;;;;;;;;;10498100;28;20217;-69
2024/01/19 11:38:33;;;;;;;7.37;3.60;;;;;;;;;;10496910;28;20218;-70
2024/01/19 11:43:43;;;;;;;10.60;4.37;;;;;;;;;;10497591;28;20202;-71
2024/01/19 11:48:44;;;;;;;10.40;4.20;;;;;;;;;;10495854;28;20233;-73
2024/01/19 11:53:54;;;;;;;9.33;4.00;;;;;;;;;;10497517;28;20191;-70
2024/01/19 11:58:55;;;;;;;11.00;4.40;;;;;;;;;;10496910;28;20707;-71
2024/01/19 12:03:55;;;;;;;12.10;4.10;;;;;;;;;;10496673;28;20274;-73
2024/01/19 12:08:59;;;;;;;9.53;5.70;;;;;;;;;;10496074;28;20472;-73
2024/01/19 12:14:03;;;;;;;8.67;4.90;;;;;;;;;;10496684;28;20222;-71
2024/01/19 12:19:03;;;;;;;12.87;5.93;;;;;;;;;;10496078;28;20219;-73
2024/01/19 12:24:03;;;;;;;12.37;5.10;;;;;;;;;;10496167;28;20191;-73
2024/01/19 12:29:04;;;;;;;12.70;6.20;;;;;;;;;;10495731;28;20826;-72
2024/01/19 12:34:11;;;;;;;13.07;6.40;;;;;;;;;;10495711;28;20207;-72
2024/01/19 12:39:14;;;;;;;14.67;7.37;;;;;;;;;;10495588;28;20603;-71
2024/01/19 12:44:14;;;;;;;14.00;6.27;;;;;;;;;;10494158;28;20191;-70
2024/01/19 12:49:14;;;;;;;10.30;6.00;;;;;;;;;;10494698;28;20242;-70
2024/01/19 12:54:18;;;;;;;16.07;6.83;;;;;;;;;;10494757;28;20203;-70
2024/01/19 12:59:21;;;;;;;13.60;7.67;;;;;;;;;;10492979;28;20230;-69
2024/01/19 13:04:23;;;;;;;14.77;7.43;;;;;;;;;;10491368;28;20214;-70
2024/01/19 13:09:25;;;;;;;12.17;7.17;;;;;;;;;;10493714;28;20648;-69
2024/01/19 13:14:25;;;;;;;13.53;6.83;;;;;;;;;;10493949;28;20692;-69
2024/01/19 13:19:25;;;;;;;13.45;7.07;;;;;;;;;;10492307;28;20219;-69
2024/01/19 13:24:26;;;;;;;22.77;11.30;;;;;;;;;;10493333;28;20210;-70
2024/01/19 13:29:26;;;;;;;16.50;7.47;;;;;;;;;;10495274;28;20676;-70
2024/01/19 13:34:27;;;;;;;15.50;6.60;;;;;;;;;;10492850;28;20274;-70
2024/01/19 13:39:28;;;;;;;24.57;9.00;;;;;;;;;;10492965;28;20677;-70
2024/01/19 13:44:28;;;;;;;14.77;7.87;;;;;;;;;;10492597;28;20191;-70
2024/01/19 13:49:28;;;;;;;17.08;8.15;;;;;;;;;;10492076;28;20257;-70
2024/01/19 13:54:29;;;;;;;17.10;8.23;;;;;;;;;;10491600;28;20187;-70
2024/01/19 13:59:29;;;;;;;17.70;6.97;;;;;;;;;;10491981;28;20215;-70
2024/01/19 14:04:30;;;;;;;16.08;8.40;;;;;;;;;;10492268;28;20685;-70
2024/01/19 14:09:30;;;;;;;19.80;7.33;;;;;;;;;;10491390;28;20756;-69
2024/01/19 14:14:31;;;;;;;19.80;8.40;;;;;;;;;;10492409;28;20195;-69
2024/01/19 14:19:32;;;;;;;16.73;7.23;;;;;;;;;;10491310;28;20479;-70
2024/01/19 14:24:32;;;;;;;11.70;6.70;;;;;;;;;;10491520;28;20194;-70
2024/01/19 14:29:33;;;;;;;18.80;8.33;;;;;;;;;;10490954;28;20211;-70
2024/01/19 14:34:33;;;;;;;14.70;7.40;;;;;;;;;;10491171;28;20202;-70
2024/01/19 14:39:33;;;;;;;14.77;8.00;;;;;;;;;;10491179;28;20488;-70
2024/01/19 14:44:34;;;;;;;15.20;7.37;;;;;;;;;;10490845;28;20207;-69
2024/01/19 14:49:35;;;;;;;13.83;6.80;;;;;;;;;;10490280;28;20222;-69
2024/01/19 14:54:35;;;;;;;21.57;7.80;;;;;;;;;;10490697;28;20199;-69
2024/01/19 14:59:35;;;;;;;13.17;7.30;;;;;;;;;;10490814;28;20222;-70
2024/01/19 15:04:35;;;;;;;20.67;7.50;;;;;;;;;;10490695;28;20187;-69
2024/01/19 15:09:36;;;;;;;14.17;7.13;;;;;;;;;;10490053;28;20328;-70
2024/01/19 15:14:36;;;;;;;12.47;6.73;;;;;;;;;;10490770;28;20270;-70
2024/01/19 15:19:36;;;;;;;14.68;7.78;;;;;;;;;;10489987;28;20223;-69
2024/01/19 15:24:36;;;;;;;15.40;10.17;;;;;;;;;;10490395;28;20187;-69
2024/01/19 15:29:36;;;;;;;16.53;8.00;;;;;;;;;;10490004;28;20742;-69
2024/01/19 15:34:40;;;;;;;15.90;7.90;;;;;;;;;;10489883;28;20567;-69
2024/01/19 15:39:43;;;;;;;16.80;8.13;;;;;;;;;;10490490;28;20226;-69
2024/01/19 15:44:44;;;;;;;20.17;9.70;;;;;;;;;;10496190;28;20187;-69
2024/01/19 15:49:44;;;;;;;17.97;9.27;;;;;;;;;;10497303;28;20237;-69
2024/01/19 15:54:46;;;;;;;30.63;11.33;;;;;;;;;;10496678;28;20187;-69
2024/01/19 15:59:46;;;;;;;20.17;9.70;;;;;;;;;;10496856;28;20215;-68
2024/01/19 16:04:46;;;;;;;19.97;7.53;;;;;;;;;;10496800;28;20206;-68
2024/01/19 16:09:46;;;;;;;20.47;9.60;;;;;;;;;;10495378;28;20210;-68
2024/01/19 16:14:46;;;;;;;25.60;11.37;;;;;;;;;;10495129;28;20540;-69
2024/01/19 16:19:53;;;;;;;12.73;6.23;;;;;;;;;;10495061;28;20214;-68
2024/01/19 16:24:53;;;;;;;20.70;9.03;;;;;;;;;;10495420;28;20226;-68
2024/01/19 16:29:53;;;;;;;18.10;9.53;;;;;;;;;;10495605;28;20234;-69
2024/01/19 16:34:53;;;;;;;19.40;9.00;;;;;;;;;;10495710;28;20191;-68
2024/01/19 16:39:53;;;;;;;20.63;8.97;;;;;;;;;;10495287;28;20520;-69
2024/01/19 16:44:54;;;;;;;14.87;8.23;;;;;;;;;;10494939;28;20175;-68
2024/01/19 16:49:54;;;;;;;25.57;9.30;;;;;;;;;;10494866;28;20234;-69
2024/01/19 16:54:54;;;;;;;18.80;9.63;;;;;;;;;;10494453;28;20187;-68
2024/01/19 16:59:55;;;;;;;25.30;9.70;;;;;;;;;;10494549;28;20689;-69
2024/01/19 17:04:55;;;;;;;16.37;9.47;;;;;;;;;;10494155;28;20672;-69
2024/01/19 17:09:55;;;;;;;20.87;8.50;;;;;;;;;;10494088;28;20233;-68
2024/01/19 17:14:56;;;;;;;18.37;10.90;;;;;;;;;;10494008;28;20188;-68
2024/01/19 17:19:56;;;;;;;20.60;11.27;;;;;;;;;;10493442;28;20219;-69
2024/01/19 17:24:56;;;;;;;23.90;12.73;;;;;;;;;;10493689;28;20195;-69
2024/01/19 17:29:57;;;;;;;22.50;12.37;;;;;;;;;;10493598;28;20226;-68
2024/01/19 17:34:57;;;;;;;21.47;10.33;;;;;;;;;;10493740;28;20191;-68
2024/01/19 17:39:57;;;;;;;6.87;2.77;;;;;;;;;;10492653;28;20483;-68
2024/01/19 17:44:57;;;;;;;23.63;10.13;;;;;;;;;;10492912;28;20726;-68
2024/01/19 17:49:58;;;;;;;22.00;9.33;;;;;;;;;;10492092;28;20230;-68
2024/01/19 17:54:58;;;;;;;25.73;13.23;;;;;;;;;;10492523;28;20456;-68
2024/01/19 17:59:58;;;;;;;17.00;9.37;;;;;;;;;;10492016;28;20299;-69
2024/01/19 18:04:59;;;;;;;22.00;9.67;;;;;;;;;;10491617;28;20241;-68
2024/01/19 18:09:59;;;;;;;20.23;10.50;;;;;;;;;;10491933;28;20465;-68
2024/01/19 18:14:59;;;;;;;16.60;9.60;;;;;;;;;;10491692;28;20636;-68
2024/01/19 18:19:59;;;;;;;26.17;11.87;;;;;;;;;;10491571;28;20221;-69
2024/01/19 18:25:00;;;;;;;15.93;9.90;;;;;;;;;;10491516;28;20495;-69
2024/01/19 18:30:00;;;;;;;17.10;10.57;;;;;;;;;;10491522;28;20215;-68
2024/01/19 18:35:00;;;;;;;15.23;8.80;;;;;;;;;;10491239;28;20279;-68
2024/01/19 18:40:01;;;;;;;14.53;8.00;;;;;;;;;;10490935;28;20233;-68
2024/01/19 18:45:02;;;;;;;19.10;8.43;;;;;;;;;;10491058;28;20199;-67
2024/01/19 18:50:03;;;;;;;14.30;7.00;;;;;;;;;;10490098;28;20313;-68
2024/01/19 18:55:03;;;;;;;25.53;10.97;;;;;;;;;;10490691;28;20183;-68
2024/01/19 19:00:03;;;;;;;32.83;12.07;;;;;;;;;;10490114;28;20830;-68
2024/01/19 19:05:04;;;;;;;19.27;8.73;;;;;;;;;;10490362;28;20195;-69
2024/01/19 19:10:04;;;;;;;19.40;8.40;;;;;;;;;;10488675;28;20257;-68
2024/01/19 19:15:05;;;;;;;19.83;8.07;;;;;;;;;;10492976;28;20186;-69
2024/01/19 19:20:05;;;;;;;17.27;7.10;;;;;;;;;;10498172;28;20226;-68
2024/01/19 19:25:06;;;;;;;13.63;6.90;;;;;;;;;;10497753;28;20240;-68
2024/01/19 19:30:10;;;;;;;21.58;7.93;;;;;;;;;;10497786;28;20591;-68
2024/01/19 19:35:10;;;;;;;17.63;7.47;;;;;;;;;;10497372;28;20222;-69
2024/01/19 19:40:12;;;;;;;11.57;7.20;;;;;;;;;;10497078;28;20250;-67
2024/01/19 19:45:12;;;;;;;16.77;8.63;;;;;;;;;;10497163;28;20453;-68
2024/01/19 19:50:12;;;;;;;21.33;8.27;;;;;;;;;;10495133;28;20708;-66
2024/01/19 19:55:13;;;;;;;17.13;9.60;;;;;;;;;;10496921;28;20194;-68
2024/01/19 20:00:13;;;;;;;16.40;6.17;;;;;;;;;;10496304;28;20688;-68
2024/01/19 20:05:15;;;;;;;20.03;6.77;;;;;;;;;;10495543;28;20217;-67
2024/01/19 20:10:15;;;;;;;11.13;5.27;;;;;;;;;;10496048;28;20203;-68
2024/01/19 20:15:15;;;;;;;14.60;7.17;;;;;;;;;;10495908;28;20722;-67
2024/01/19 20:20:18;;;;;;;16.83;8.07;;;;;;;;;;10495773;28;20306;-67
2024/01/19 20:25:18;;;;;;;19.13;7.40;;;;;;;;;;10495169;28;20218;-68
2024/01/19 20:30:18;;;;;;;22.13;8.33;;;;;;;;;;10495982;28;20250;-68
2024/01/19 20:35:18;;;;;;;10.43;5.10;;;;;;;;;;10495666;28;20618;-68
2024/01/19 20:40:21;;;;;;;20.15;7.68;;;;;;;;;;10495406;28;20839;-68
2024/01/19 20:45:21;;;;;;;18.43;10.17;;;;;;;;;;10495167;28;20677;-67
2024/01/19 20:50:21;;;;;;;13.60;5.80;;;;;;;;;;10494466;28;20243;-68
2024/01/19 20:55:23;;;;;;;15.40;5.73;;;;;;;;;;10494855;28;20539;-68
2024/01/19 21:00:23;;;;;;;12.53;5.57;;;;;;;;;;10493115;28;20219;-68
2024/01/19 21:05:23;;;;;;;17.30;8.90;;;;;;;;;;10494601;28;20187;-67
2024/01/19 21:10:23;;;;;;;10.87;6.23;;;;;;;;;;10494112;28;20206;-67
2024/01/19 21:15:24;;;;;;;21.13;9.47;;;;;;;;;;10494183;28;20441;-68
2024/01/19 21:20:24;;;;;;;6.90;4.43;;;;;;;;;;10493566;28;20227;-68
2024/01/19 21:25:25;;;;;;;11.57;4.67;;;;;;;;;;10493769;28;20680;-68
2024/01/19 21:30:25;;;;;;;18.15;7.32;;;;;;;;;;10493033;28;20549;-68
2024/01/19 21:35:25;;;;;;;17.30;6.43;;;;;;;;;;10493329;28;20191;-67
2024/01/19 21:40:26;;;;;;;16.30;5.60;;;;;;;;;;10491926;28;20276;-68
2024/01/19 21:45:27;;;;;;;12.10;5.77;;;;;;;;;;10492619;28;20645;-68
2024/01/19 21:50:27;;;;;;;3.80;2.77;;;;;;;;;;10492096;28;20237;-67
2024/01/19 21:55:27;;;;;;;12.07;4.93;;;;;;;;;;10492294;28;20171;-67
2024/01/19 22:00:28;;;;;;;13.00;5.40;;;;;;;;;;10492379;28;20207;-67
2024/01/19 22:05:28;;;;;;;15.93;5.77;;;;;;;;;;10491891;28;20228;-68
2024/01/19 22:10:28;;;;;;;14.97;5.07;;;;;;;;;;10491647;28;20306;-68
2024/01/19 22:15:32;;;;;;;13.10;4.23;;;;;;;;;;10492037;28;20183;-68
2024/01/19 22:20:32;;;;;;;9.23;3.87;;;;;;;;;;10491348;28;20693;-68
2024/01/19 22:25:33;;;;;;;9.90;5.17;;;;;;;;;;10492207;28;20186;-68
2024/01/19 22:30:35;;;;;;;10.53;5.03;;;;;;;;;;10491738;28;20515;-66
2024/01/19 22:35:35;;;;;;;10.47;4.07;;;;;;;;;;10491744;28;20198;-67
2024/01/19 22:40:35;;;;;;;18.80;5.97;;;;;;;;;;10491547;28;20191;-68
2024/01/19 22:45:35;;;;;;;13.13;4.50;;;;;;;;;;10490924;28;20736;-68
2024/01/19 22:50:36;;;;;;;6.30;3.70;;;;;;;;;;10490923;28;20262;-68
2024/01/19 22:55:36;;;;;;;16.23;4.40;;;;;;;;;;10490630;28;20218;-67
2024/01/19 23:00:36;;;;;;;11.23;4.40;;;;;;;;;;10491106;28;20203;-68
2024/01/19 23:05:36;;;;;;;12.10;4.30;;;;;;;;;;10490659;28;20199;-67
2024/01/19 23:10:36;;;;;;;12.10;4.03;;;;;;;;;;10490607;28;20211;-68
2024/01/19 23:15:37;;;;;;;11.83;3.03;;;;;;;;;;10490552;28;20191;-68
2024/01/19 23:20:37;;;;;;;8.53;4.30;;;;;;;;;;10490319;28;20560;-67
2024/01/19 23:25:37;;;;;;;8.10;3.93;;;;;;;;;;10490520;28;20191;-68
2024/01/19 23:30:37;;;;;;;9.20;4.47;;;;;;;;;;10488666;28;20306;-68
2024/01/19 23:35:37;;;;;;;7.43;4.03;;;;;;;;;;10490167;28;20187;-69
2024/01/19 23:40:37;;;;;;;8.07;3.80;;;;;;;;;;10490024;28;20203;-68
2024/01/19 23:45:38;;;;;;;12.73;3.50;;;;;;;;;;10489504;28;20202;-66
2024/01/19 23:50:38;;;;;;;7.80;3.70;;;;;;;;;;10489400;28;20225;-67
2024/01/19 23:55:38;;;;;;;8.43;4.37;;;;;;;;;;10489868;28;20191;-67
